Weather observations for the past three days for
Cambridge Municipal Airport
Imperial (Metric)
Date Time (edt) Wind (mph) Vis. (mi.) Weather Sky Cond. Temperature (ºF) Relative Humidity Wind Chill (°F) Heat Index (°F) Pressure Precipitation (in)
Air Dwpt 6 hour altimeter (in) sea level (mb) 1 hr 3 hr 6 hr
Max. Min.
04 18:55 S 8 10.00 Mostly Cloudy SCT100 BKN120 69.4 53.2 57% 29.76 0.0
04 18:35 S 8 10.00 Overcast OVC120 68.9 51.8 55% 29.76 0.0
04 18:15 SW 6 10.00 Mostly Cloudy BKN110 69.6 51.3 52% 29.75 0.0
04 17:55 SW 10 G 25 10.00 Partly Cloudy SCT060 SCT070 SCT100 71.4 52 50% 29.75 0.0
04 17:35 S 13 G 21 10.00 Mostly Cloudy SCT060 SCT070 BKN100 70.7 52 52% 29.76 0.0
04 17:15 SW 10 G 25 10.00 Overcast SCT060 BKN070 OVC100 70.7 51.3 50% 29.76 0.0
04 16:55 S 6 G 22 10.00 Mostly Cloudy SCT060 BKN110 71.6 50.9 48% 29.76 0.0
04 16:35 S 13 G 22 10.00 Mostly Cloudy BKN060 BKN100 72.1 52.3 50% 29.75 0.0
04 16:15 SW 15 G 24 10.00 Mostly Cloudy SCT060 BKN090 72.7 51.6 48% 29.75 0.0
04 15:55 SW 9 G 20 10.00 Overcast BKN060 OVC100 73 51.6 47% 29.75 0.0
04 15:35 SW 9 G 17 10.00 Mostly Cloudy BKN060 BKN075 BKN100 72.9 52.5 49% 29.76 0.0
04 15:15 S 15 G 20 10.00 Mostly Cloudy BKN060 BKN075 72.9 51.4 47% 29.76 0.0
04 14:55 S 13 G 20 10.00 Partly Cloudy SCT060 SCT070 72 52 50% 29.77 0.0
04 14:35 S 12 G 20 10.00 Partly Cloudy SCT050 SCT070 71.4 52.7 52% 29.77 0.0
04 14:15 S 14 G 23 10.00 Partly Cloudy SCT050 SCT070 70.7 52.2 52% 29.78 0.0
04 13:55 SW 10 G 16 10.00 Partly Cloudy SCT049 69.8 50.9 69.8 53.1 51% 29.79 0.0
04 13:35 SW 17 10.00 Partly Cloudy SCT049 69.1 51.4 54% 29.79 0.0
04 13:15 S 9 10.00 Partly Cloudy SCT049 68 50.9 54% 29.81 0.0
04 12:55 SW 10 G 22 10.00 Partly Cloudy SCT047 67.3 50.5 55% 29.81 0.0
04 12:35 S 16 G 21 10.00 Partly Cloudy SCT090 66.6 49.8 55% 29.81 0.0
04 12:15 S 13 G 20 10.00 Fair CLR 66 49.8 56% 29.82 0.0
04 11:55 S 15 G 23 10.00 Fair CLR 65.3 48.4 55% 29.83 0.0
04 11:35 S 10 G 17 10.00 Fair CLR 64.6 48 55% 29.83 0.0
04 11:15 S 12 G 17 10.00 Partly Cloudy SCT075 64 47.5 55% 29.83 0.0
04 10:55 S 13 G 21 10.00 Partly Cloudy SCT075 SCT090 63 46 54% 29.85 0.0
04 10:35 S 10 G 21 10.00 Fair CLR 63 45.5 53% 29.85 0.0
04 10:15 SW 8 10.00 Fair CLR 62.2 45.7 55% 29.85 0.0
04 09:55 S 9 G 16 10.00 Fair CLR 60.6 44.6 56% 29.86 0.0
04 09:35 S 10 G 21 10.00 Fair CLR 58.6 43.3 57% 29.86 0.0
04 09:15 S 9 10.00 Fair CLR 57.4 43.2 59% 29.86 0.0
04 08:55 S 8 G 16 10.00 Fair CLR 56.3 43 61% 29.86 0.0
04 08:35 S 9 G 16 10.00 Fair CLR 55 42.1 62% 29.87 0.0
04 08:15 S 9 10.00 Fair CLR 54 41.5 63% 29.86 0.0
04 07:55 S 10 10.00 Fair CLR 52.7 41.4 52.7 46.6 66% 29.86 0.0
04 07:35 S 8 10.00 Fair CLR 51.4 40.5 66% 29.86 0.0
04 07:15 S 6 10.00 Fair CLR 50.2 40.3 69% 29.86 0.0
04 06:55 S 6 10.00 Fair CLR 49.3 40.1 71% 47 29.86 0.0
04 06:35 S 6 10.00 Partly Cloudy SCT080 49.5 39.7 69% 48 29.86 0.0
04 06:15 S 5 10.00 Mostly Cloudy SCT070 BKN080 50.5 39.7 67% 29.86 0.0
04 05:55 S 7 10.00 Overcast OVC070 51.4 39.9 65% 29.87 0.0
04 05:35 S 7 10.00 Overcast OVC070 51.6 39.6 64% 29.87 0.0
04 05:15 SW 6 10.00 Overcast OVC070 51.3 39.2 64% 29.88 0.0
04 04:55 SW 5 10.00 Overcast BKN070 OVC120 50.5 38.8 64% 29.88 0.0
04 04:35 SW 5 10.00 Mostly Cloudy BKN070 BKN120 50 38.5 65% 49 29.89 0.0
04 04:15 SW 5 10.00 Overcast SCT070 BKN080 OVC120 49.3 38.8 67% 48 29.89 0.0
04 03:55 S 3 10.00 Overcast SCT070 OVC090 49.3 40.1 71% 29.89 0.0
04 03:35 S 5 10.00 Overcast BKN070 OVC090 49.3 40.3 71% 48 29.9 0.0
04 03:15 S 3 10.00 Overcast OVC070 50.4 38.8 65% 29.91 0.0
04 02:55 SW 5 10.00 Overcast OVC070 50.2 38.7 65% 29.91 0.0
04 02:35 S 5 10.00 Light Drizzle OVC070 50.2 39.2 66% 29.92 0.0
04 02:15 S 6 10.00 Overcast OVC080 47.8 41 77% 46 29.93 0.0
04 01:55 SW 3 10.00 Overcast OVC090 46.4 42.3 57 45.5 86% 29.93 0.0
04 01:35 Calm 10.00 Overcast BKN100 OVC120 46.2 42.1 86% 29.94 0.0
04 01:15 Calm 10.00 Overcast OVC110 45.9 41.9 86% 29.94 0.0
04 00:55 Calm 10.00 Mostly Cloudy BKN110 45.5 42.6 90% 29.94 0.0
04 00:35 Calm 10.00 Partly Cloudy SCT090 SCT120 45.9 42.1 87% 29.94 0.0
04 00:15 Calm 10.00 Partly Cloudy SCT090 SCT120 46.8 40.8 80% 29.94 0.0
03 23:55 Calm 10.00 Mostly Cloudy SCT090 BKN120 47.3 40.5 77% 29.95 0.0
03 23:35 Calm 10.00 Mostly Cloudy SCT080 BKN110 48 42.1 80% 29.95 0.0
03 23:15 Calm 10.00 Overcast BKN080 OVC110 50.4 41.7 72% 29.95 0.0
03 22:55 Calm 10.00 Overcast BKN080 OVC110 51.8 39.4 63% 29.95 0.0
03 22:35 Calm 10.00 Overcast OVC080 54 36.5 52% 29.95 0.0
03 22:15 SW 3 10.00 Overcast OVC070 55 35.6 48% 29.96 0.0
03 21:55 SW 5 10.00 Overcast BKN070 OVC090 54.9 35.2 48% 29.96 0.0
03 21:35 SW 3 10.00 Mostly Cloudy BKN090 53.6 35.4 50% 29.95 0.0
03 21:15 Calm 10.00 Partly Cloudy SCT080 SCT085 50.2 39 66% 29.95 0.0
03 20:55 Calm 10.00 Mostly Cloudy SCT080 BKN110 51.1 40.3 67% 29.94 0.0
03 20:35 Calm 10.00 Mostly Cloudy SCT080 BKN120 52.5 40.3 63% 29.94 0.0
03 20:15 Calm 10.00 Partly Cloudy SCT080 SCT120 55.6 36.5 49% 29.94 0.0
03 19:55 Calm 10.00 Partly Cloudy SCT080 57.4 33.3 61.3 57.2 40% 29.94 0.0
03 19:35 SW 6 10.00 Mostly Cloudy BKN080 58.3 33.1 39% 29.94 0.0
03 19:15 Calm 10.00 Mostly Cloudy BKN080 59 33.1 38% 29.95 0.0
03 18:55 SW 5 10.00 Partly Cloudy SCT080 59 32.7 37% 29.95 0.0
03 18:35 SW 6 10.00 Overcast OVC070 59.7 32.4 36% 29.95 0.0
03 18:15 SW 6 10.00 Overcast OVC070 59.9 32.2 35% 29.96 0.0
03 17:55 W 5 10.00 Mostly Cloudy BKN070 60.1 32.2 35% 29.96 0.0
03 17:35 SW 8 10.00 Mostly Cloudy BKN070 59.5 31.6 35% 29.96 0.0
03 17:15 SW 3 10.00 Mostly Cloudy BKN070 60.6 33.8 37% 29.96 0.0
03 16:55 W 6 G 22 10.00 Mostly Cloudy BKN070 60.1 32.2 35% 29.97 0.0
03 16:35 S 10 10.00 Mostly Cloudy BKN070 59.4 32.5 36% 29.97 0.0
03 16:15 SW 13 G 16 10.00 Partly Cloudy SCT070 60.4 31.6 34% 29.98 0.0
03 15:55 SW 8 G 16 10.00 Partly Cloudy SCT070 60.8 31.6 33% 29.99 0.0
03 15:35 W 8 G 18 10.00 Partly Cloudy SCT070 60.8 33.1 35% 30 0.0
03 15:15 SW 9 G 21 10.00 Partly Cloudy SCT070 60.4 31.6 34% 30 0.0
03 14:55 SW 10 G 16 10.00 Partly Cloudy SCT070 59.5 32 35% 30.02 0.0
03 14:35 W 10 G 21 10.00 Partly Cloudy SCT075 59 31.5 35% 30.03 0.0
03 14:15 SW 10 10.00 Mostly Cloudy BKN075 59.9 34.2 38% 30.04 0.0
03 13:55 SW 10 G 16 10.00 Mostly Cloudy BKN065 59.4 35.4 59.5 33.1 41% 30.04 0.0
03 13:35 SW 8 G 18 10.00 Partly Cloudy SCT065 SCT075 57 32.4 39% 30.05 0.0
03 13:15 SW 12 G 18 10.00 Fair CLR 57.7 34.5 42% 30.05 0.0
03 12:55 W 7 G 17 10.00 Fair CLR 56.5 33.8 43% 30.06 0.0
03 12:35 W 5 10.00 Fair CLR 55.8 33.3 43% 30.07 0.0
03 12:15 W 6 10.00 Fair CLR 54.9 32.2 42% 30.08 0.0
03 11:55 W 5 10.00 Fair CLR 54 31.8 43% 30.08 0.0
03 11:35 SW 9 10.00 Fair CLR 53.4 32.4 45% 30.08 0.0
03 11:15 W 7 10.00 Fair CLR 52.9 30.9 43% 30.09 0.0
03 10:55 W 9 10.00 Fair CLR 51.6 31.5 46% 30.1 0.0
03 10:35 SW 3 10.00 Fair CLR 51.3 31.6 47% 30.1 0.0
03 10:15 SW 6 10.00 Fair CLR 50.2 32.4 51% 30.1 0.0
03 09:55 W 5 10.00 Fair CLR 48.6 32.2 53% 47 30.1 0.0
03 09:35 SW 7 10.00 Fair CLR 46.9 32.2 57% 44 30.1 0.0
03 09:15 W 8 10.00 Partly Cloudy SCT002 46.6 32.5 58% 43 30.1 0.0
03 08:55 SW 10 10.00 Fair CLR 44.8 36.1 72% 40 30.1 0.0
03 08:35 S 5 10.00 Fair CLR 40.3 36.1 85% 38 30.1 0.0
03 08:15 S 3 10.00 Fair CLR 36.1 36.1 100% 30.1 0.0
03 07:55 Calm 10.00 Fair CLR 32.4 32.4 32.9 28.4 100% 30.1 0.0
03 07:35 Calm 10.00 Fair CLR 31.1 31.1 100% 30.09 0.0
03 07:15 Calm 10.00 Fair CLR 30 30 100% 30.08 0.0
03 06:55 Calm 10.00 Fair CLR 29.1 29.1 100% 30.08 0.0
03 06:35 Calm 10.00 Fair CLR 28.9 28.9 100% 30.07 0.0
03 06:15 Calm 10.00 Fair CLR 28.8 28.8 100% 30.07 0.0
03 05:55 Calm 10.00 Fair CLR 28.8 28.8 100% 30.06 0.0
03 05:35 Calm 10.00 Fair CLR 28.9 28.9 100% 30.06 0.0
03 05:15 Calm 10.00 Fair CLR 30 30 100% 30.06 0.0
03 04:55 Calm 10.00 Fair CLR 29.8 29.8 100% 30.06 0.0
03 04:35 Calm 10.00 Fair CLR 30.6 30.6 100% 30.06 0.0
03 04:15 Calm 10.00 Fair CLR 31.1 31.1 100% 30.06 0.0
03 03:55 Calm 10.00 Fair CLR 32 32 100% 30.06 0.0
03 03:35 Calm 10.00 Mostly Cloudy BKN075 32 32 100% 30.06 0.0
03 03:15 Calm 10.00 Overcast OVC075 32.9 32.9 100% 30.05 0.0
03 02:55 Calm 10.00 Overcast OVC075 32.9 32.9 100% 30.05 0.0
03 02:35 S 3 10.00 Overcast OVC075 32.9 32.9 100% 30.05 0.0
03 02:15 Calm 10.00 Overcast OVC075 32.9 32.9 100% 30.06 0.0
03 01:55 S 5 10.00 Overcast OVC075 32.2 32.2 42.8 32.2 100% 28 30.06 0.0
03 01:35 Calm 10.00 Mostly Cloudy BKN075 32.2 32.2 100% 30.06 0.0
03 01:15 Calm 10.00 Partly Cloudy SCT075 33.3 33.3 100% 30.06 0.0
03 00:55 Calm 10.00 Partly Cloudy SCT080 34.7 34.7 100% 30.06 0.0
03 00:35 Calm 10.00 Overcast OVC080 36 36 100% 30.06 0.0
03 00:15 Calm 10.00 Overcast OVC080 36.5 36.5 100% 30.06 0.0
02 23:55 Calm 10.00 Overcast OVC080 36.9 36.5 99% 30.06 0.0
02 23:35 Calm 10.00 Overcast OVC080 37.8 37 97% 30.06 0.0
02 23:15 Calm 10.00 Overcast OVC080 38.3 37.4 97% 30.07 0.0
02 22:55 Calm 10.00 Overcast OVC080 38.8 37.4 95% 30.07 0.0
02 22:35 Calm 10.00 Overcast OVC080 39.2 37.2 93% 30.07 0.0
02 22:15 Calm 10.00 Overcast OVC080 39.7 36.9 89% 30.07 0.0
02 21:55 Calm 10.00 Overcast OVC080 40.1 36.7 88% 30.06 0.0
02 21:35 Calm 10.00 Overcast OVC080 40.1 36.5 87% 30.07 0.0
02 21:15 Calm 10.00 Overcast OVC080 40.3 36.5 86% 30.06 0.0
02 20:55 Calm 10.00 Overcast OVC080 41.9 35.2 77% 30.06 0.0
02 20:35 Calm 10.00 Overcast OVC080 42.1 35.1 76% 30.06 0.0
02 20:15 Calm 10.00 Overcast SCT060 SCT070 OVC080 42.4 35.2 76% 30.06 0.0
02 19:55 Calm 10.00 Overcast SCT060 OVC080 42.8 35.1 47.8 42.8 74% 30.05 0.0
02 19:35 N 6 10.00 Overcast SCT030 OVC080 43.2 34.3 71% 40 30.05 0.0
02 19:15 NW 3 10.00 Overcast SCT032 OVC080 43.7 34.7 71% 30.04 0.0
02 18:55 N 3 10.00 Overcast BKN032 BKN039 OVC080 44.2 35.1 70% 30.04 0.0
02 18:35 N 5 10.00 Overcast SCT032 SCT038 OVC080 44.2 35.1 70% 42 30.04 0.0
02 18:15 N 5 10.00 Overcast SCT039 BKN060 OVC075 44.1 36.7 75% 42 30.04 0.0
02 17:55 N 5 10.00 Light Drizzle SCT039 BKN047 OVC060 43.3 37 79% 41 30.03 0.0
02 17:35 Calm 10.00 Overcast OVC045 43.2 36.3 77% 30.03 0.0
02 17:15 N 3 10.00 Light Drizzle SCT040 OVC047 42.8 36.5 79% 30.03 0.0
02 16:55 NW 8 10.00 Rain SCT037 OVC043 43.2 36.3 77% 39 30.03 0.0
02 16:35 NW 6 10.00 Overcast BKN037 BKN047 OVC060 46.8 35.1 64% 44 30.02 0.0
02 16:15 NW 3 10.00 Overcast SCT035 BKN050 OVC075 46.9 35.2 64% 30.01 0.0
02 15:55 NW 7 10.00 Overcast SCT046 SCT065 OVC070 47.5 35.4 63% 45 30.02 0.0
02 15:35 Calm 10.00 Overcast BKN048 BKN065 OVC070 46.6 36.7 69% 30.03 0.0
02 15:15 N 6 10.00 Overcast SCT032 OVC048 44.8 34.5 67% 42 30.03 0.0
02 14:55 NW 3 10.00 Overcast SCT032 BKN050 OVC065 46.2 34.7 64% 30.03 0.0
02 14:35 N 6 10.00 Overcast OVC065 46.4 34.5 63% 44 30.03 0.0
02 14:15 N 6 10.00 Overcast SCT035 SCT060 OVC065 46.2 34.2 63% 44 30.04 0.0
02 13:55 N 8 10.00 Overcast SCT035 OVC050 45.7 34.3 48.4 35.1 65% 42 30.04 0.0
02 13:35 NW 8 10.00 Overcast OVC050 45.7 35.1 67% 42 30.04 0.0
02 13:15 N 8 G 18 10.00 Overcast BKN050 OVC060 45.1 34.5 66% 41 30.04 0.0
02 12:55 NW 5 10.00 Overcast SCT050 OVC060 47.3 29.5 50% 46 30.03 0.0
02 12:35 N 8 10.00 Overcast OVC050 48.2 30.7 51% 45 30.03 0.0
02 12:15 W 5 G 16 10.00 Overcast OVC050 46.8 28.8 50% 45 30.03 0.0
02 11:55 W 6 10.00 Mostly Cloudy BKN050 48.2 29.7 49% 46 30.03 0.0
02 11:35 W 8 G 16 10.00 Partly Cloudy SCT050 47.7 29.5 49% 44 30.03 0.0
02 11:15 W 8 10.00 Mostly Cloudy SCT044 BKN050 48.2 30.9 51% 45 30.03 0.0
02 10:55 NW 7 10.00 Mostly Cloudy SCT044 BKN050 47.1 32 56% 44 30.03 0.0
02 10:35 W 3 10.00 Mostly Cloudy SCT034 BKN044 BKN050 47.1 33.6 60% 30.03 0.0
02 10:15 NW 3 10.00 Mostly Cloudy SCT027 SCT034 BKN042 46 34.9 65% 30.03 0.0
02 09:55 NW 5 10.00 Partly Cloudy SCT025 SCT039 45.1 36.5 72% 43 30.03 0.0
02 09:35 W 7 10.00 Partly Cloudy SCT021 44.6 37.9 78% 41 30.03 0.0
02 09:15 Calm 10.00 Fair CLR 42.1 37.4 84% 30.03 0.0
02 08:55 Calm 10.00 Fair CLR 41.2 38.1 89% 30.03 0.0
02 08:35 W 3 10.00 Fair CLR 39.2 37.6 94% 30.03 0.0
02 08:15 Calm 10.00 Fair CLR 37.6 37.6 100% 30.03 0.0
02 07:55 Calm 10.00 Fair CLR 34.2 34.2 34.7 30.6 100% 30.03 0.0
02 07:35 Calm 10.00 Fair CLR 32 32 100% 30.03 0.0
02 07:15 Calm 10.00 Partly Cloudy SCT001 31.1 31.1 100% 30.03 0.0
02 06:55 Calm 2.00 Fog/Mist OVC001 30.6 30.6 100% 30.03 0.0
02 06:35 Calm 1.75 Fog/Mist BKN001 30.9 30.9 100% 30.03 0.0
02 06:15 Calm 4.00 Fog/Mist SCT001 31.1 31.1 100% 30.02 0.0
02 05:55 Calm 10.00 Fair CLR 31.1 31.1 100% 30.02 0.0
02 05:35 Calm 10.00 Fair CLR 31.6 31.6 100% 30.03 0.0
02 05:15 Calm 10.00 Fair CLR 32 32 100% 30.03 0.0
02 04:55 Calm 10.00 Partly Cloudy SCT001 SCT031 SCT039 32.7 32.7 100% 30.02 0.0
02 04:35 Calm 10.00 Mostly Cloudy SCT001 SCT028 BKN046 32.4 32.4 100% 30.02 0.0
02 04:15 S 3 7.00 Partly Cloudy SCT036 SCT050 32 32 100% 30.02 0.0
02 03:55 Calm 7.00 Overcast SCT001 BKN050 OVC075 32.7 32.7 100% 30.01 0.0
02 03:35 Calm 10.00 Mostly Cloudy SCT001 BKN050 BKN065 33.3 33.3 100% 30.01 0.0
02 03:15 Calm 1.75 Fog/Mist SCT001 BKN050 OVC080 33.4 33.4 100% 30.02 0.0
02 02:55 Calm 0.75 Fog/Mist OVC001 33.1 33.1 100% 30.03 0.0
02 02:35 Calm 0.50 Fog OVC001 34 34 100% 30.03 0.0
02 02:15 Calm 0.25 Fog OVC001 34 34 100% 30.03 0.0
02 01:55 S 3 0.25 Fog OVC001 34.5 34.5 43.3 34.2 100% 30.03 0.0
02 01:35 Calm 7.00 Partly Cloudy SCT075 35.6 35.6 100% 30.04 0.0
02 01:15 Calm 7.00 Partly Cloudy SCT075 SCT100 36 36 100% 30.03 0.0
02 00:55 Calm 10.00 Mostly Cloudy SCT065 BKN100 37.9 37.9 100% 30.03 0.0
02 00:35 Calm 10.00 Overcast BKN065 OVC090 38.3 38.3 100% 30.04 0.0
02 00:15 Calm 10.00 Overcast SCT065 OVC090 37.9 37.9 100% 30.05 0.0
01 23:55 S 3 10.00 Overcast OVC090 37.2 37.2 100% 30.04 0.0
01 23:35 Calm 10.00 Overcast OVC090 37.8 37.8 100% 30.04 0.0
01 23:15 Calm 10.00 Overcast OVC090 37.6 37.6 100% 30.04 0.0
01 22:55 Calm 10.00 Overcast OVC090 36.9 36.9 100% 30.03 0.0
01 22:35 Calm 10.00 Overcast OVC090 36.9 36.9 100% 30.03 0.0
01 22:15 Calm 10.00 Overcast OVC090 37 37 100% 30.03 0.0
01 21:55 Calm 10.00 Mostly Cloudy BKN080 37.8 37.8 100% 30.03 0.0
01 21:35 Calm 5.00 Fog/Mist CLR 37.8 37.6 99% 30.02 0.0
01 21:15 Calm 10.00 Fair CLR 39.2 39 99% 30.01 0.0
01 20:55 Calm 10.00 Fair CLR 41 39.7 95% 30 0.0
01 20:35 Calm 10.00 Partly Cloudy SCT075 41.4 40.5 97% 30.01 0.0
01 20:15 Calm 10.00 Partly Cloudy SCT075 42.8 41 93% 29.99 0.0
01 19:55 Calm 10.00 Mostly Cloudy SCT015 SCT023 BKN065 43.7 41 52.7 43.7 90% 29.98 0.0
01 19:35 Calm 4.00 Light Rain SCT015 BKN022 OVC030 43.9 41 90% 29.97 0.0
Date Time (edt) Wind (mph) Vis. (mi.) Weather Sky Cond. Air Dwpt Max. Min. Relative Humidity Wind Chill (°F) Heat Index (°F) altimeter (in) sea level (mb) 1 hr 3 hr 6 hr
6 hour
Temperature (ºF) Pressure Precipitation (in)